sensor_id;sensor_type;location;lat;lon;timestamp;pressure;altitude;pressure_sealevel;temperature;humidity
70921;BME280;58572;48.110;19.838;2023-02-28T00:01:19;98749.59;;;-0.95;64.56
70921;BME280;58572;48.110;19.838;2023-02-28T00:03:46;98746.19;;;-0.18;62.94
70921;BME280;58572;48.110;19.838;2023-02-28T00:06:13;98744.88;;;-0.93;62.89
70921;BME280;58572;48.110;19.838;2023-02-28T00:08:42;98737.06;;;-0.52;62.66
70921;BME280;58572;48.110;19.838;2023-02-28T00:11:11;98732.25;;;-0.63;62.66
70921;BME280;58572;48.110;19.838;2023-02-28T00:13:41;98739.38;;;-0.70;62.64
70921;BME280;58572;48.110;19.838;2023-02-28T00:16:13;98738.53;;;-0.71;62.11
70921;BME280;58572;48.110;19.838;2023-02-28T00:18:41;98642.78;;;-1.38;61.97
70921;BME280;58572;48.110;19.838;2023-02-28T00:21:08;98747.31;;;-0.55;62.61
70921;BME280;58572;48.110;19.838;2023-02-28T00:23:36;98760.09;;;-0.72;62.88
70921;BME280;58572;48.110;19.838;2023-02-28T00:26:05;98760.41;;;-0.39;62.44
70921;BME280;58572;48.110;19.838;2023-02-28T00:28:32;98778.81;;;-0.87;64.84
70921;BME280;58572;48.110;19.838;2023-02-28T00:30:59;98779.69;;;-1.01;60.34
70921;BME280;58572;48.110;19.838;2023-02-28T00:33:27;98778.53;;;-0.56;64.50
70921;BME280;58572;48.110;19.838;2023-02-28T00:36:02;98652.63;;;-1.02;61.98
70921;BME280;58572;48.110;19.838;2023-02-28T00:38:30;98787.63;;;-0.72;63.43
70921;BME280;58572;48.110;19.838;2023-02-28T00:40:57;98784.56;;;-0.47;60.53
70921;BME280;58572;48.110;19.838;2023-02-28T00:43:31;98786.53;;;-0.56;64.67
70921;BME280;58572;48.110;19.838;2023-02-28T00:45:59;98785.81;;;-0.01;60.66
70921;BME280;58572;48.110;19.838;2023-02-28T00:48:26;98785.16;;;0.19;60.14
70921;BME280;58572;48.110;19.838;2023-02-28T00:50:53;98787.09;;;0.04;58.68
70921;BME280;58572;48.110;19.838;2023-02-28T00:53:21;98733.56;;;-0.31;61.47
70921;BME280;58572;48.110;19.838;2023-02-28T00:55:49;98791.84;;;0.36;59.32
70921;BME280;58572;48.110;19.838;2023-02-28T00:58:16;98794.25;;;0.24;60.40
70921;BME280;58572;48.110;19.838;2023-02-28T01:00:44;98784.69;;;0.09;61.32
70921;BME280;58572;48.110;19.838;2023-02-28T01:03:15;98787.09;;;-0.18;61.33
70921;BME280;58572;48.110;19.838;2023-02-28T01:05:42;98793.47;;;-0.19;62.00
70921;BME280;58572;48.110;19.838;2023-02-28T01:08:09;98791.81;;;0.02;59.35
70921;BME280;58572;48.110;19.838;2023-02-28T01:10:36;98792.06;;;0.07;59.42
70921;BME280;58572;48.110;19.838;2023-02-28T01:13:04;98795.88;;;-0.03;60.75
70921;BME280;58572;48.110;19.838;2023-02-28T01:15:31;98787.13;;;-0.39;60.70
70921;BME280;58572;48.110;19.838;2023-02-28T01:17:59;98790.84;;;-0.12;59.40
70921;BME280;58572;48.110;19.838;2023-02-28T01:20:26;98788.25;;;0.50;57.95
70921;BME280;58572;48.110;19.838;2023-02-28T01:22:53;98795.72;;;0.61;58.10
70921;BME280;58572;48.110;19.838;2023-02-28T01:25:20;98796.34;;;0.29;61.23
70921;BME280;58572;48.110;19.838;2023-02-28T01:27:47;98799.88;;;0.36;59.83
70921;BME280;58572;48.110;19.838;2023-02-28T01:30:15;98791.69;;;0.79;58.01
70921;BME280;58572;48.110;19.838;2023-02-28T01:32:42;98807.72;;;0.10;57.59
70921;BME280;58572;48.110;19.838;2023-02-28T01:35:10;98798.28;;;0.14;59.04
70921;BME280;58572;48.110;19.838;2023-02-28T01:37:37;98800.22;;;0.26;59.66
70921;BME280;58572;48.110;19.838;2023-02-28T01:40:05;98793.41;;;0.93;57.34
70921;BME280;58572;48.110;19.838;2023-02-28T01:42:32;98806.31;;;0.83;58.83
70921;BME280;58572;48.110;19.838;2023-02-28T01:45:14;98805.81;;;-0.18;61.66
70921;BME280;58572;48.110;19.838;2023-02-28T01:47:45;98801.47;;;0.58;59.63
70921;BME280;58572;48.110;19.838;2023-02-28T01:50:14;98794.69;;;0.28;60.07
70921;BME280;58572;48.110;19.838;2023-02-28T01:52:45;98774.91;;;-0.27;59.80
70921;BME280;58572;48.110;19.838;2023-02-28T01:55:15;98800.84;;;-0.21;58.15
70921;BME280;58572;48.110;19.838;2023-02-28T01:57:46;98625.47;;;-1.06;54.98
70921;BME280;58572;48.110;19.838;2023-02-28T02:00:17;98802.47;;;0.23;55.01
70921;BME280;58572;48.110;19.838;2023-02-28T02:02:47;98779.50;;;0.35;54.55
70921;BME280;58572;48.110;19.838;2023-02-28T02:05:19;98805.72;;;0.18;55.28
70921;BME280;58572;48.110;19.838;2023-02-28T02:07:48;98799.31;;;-0.09;59.28
70921;BME280;58572;48.110;19.838;2023-02-28T02:10:19;98791.47;;;0.39;58.57
70921;BME280;58572;48.110;19.838;2023-02-28T02:13:12;98803.94;;;0.60;59.15
70921;BME280;58572;48.110;19.838;2023-02-28T02:15:46;98804.84;;;0.11;60.87
70921;BME280;58572;48.110;19.838;2023-02-28T02:18:24;98749.56;;;-0.10;60.29
70921;BME280;58572;48.110;19.838;2023-02-28T02:21:18;98801.94;;;0.34;58.84
70921;BME280;58572;48.110;19.838;2023-02-28T02:27:21;98800.94;;;1.17;57.08
70921;BME280;58572;48.110;19.838;2023-02-28T02:30:14;98755.91;;;0.45;58.48
70921;BME280;58572;48.110;19.838;2023-02-28T02:35:42;98801.84;;;0.55;59.23
70921;BME280;58572;48.110;19.838;2023-02-28T02:38:18;98783.09;;;0.90;57.39
70921;BME280;58572;48.110;19.838;2023-02-28T02:41:02;98800.66;;;0.64;58.46
70921;BME280;58572;48.110;19.838;2023-02-28T02:43:35;98801.34;;;-0.11;53.63
70921;BME280;58572;48.110;19.838;2023-02-28T02:46:07;98794.75;;;0.76;53.80
70921;BME280;58572;48.110;19.838;2023-02-28T02:48:39;98796.56;;;0.69;54.90
70921;BME280;58572;48.110;19.838;2023-02-28T02:51:11;98786.50;;;0.36;56.82
70921;BME280;58572;48.110;19.838;2023-02-28T02:53:42;98705.53;;;-0.14;57.77
70921;BME280;58572;48.110;19.838;2023-02-28T02:56:12;98801.34;;;0.39;53.48
70921;BME280;58572;48.110;19.838;2023-02-28T02:58:42;98803.53;;;0.63;53.25
70921;BME280;58572;48.110;19.838;2023-02-28T03:01:13;98792.56;;;1.40;54.04
70921;BME280;58572;48.110;19.838;2023-02-28T03:03:42;98789.47;;;1.37;53.70
70921;BME280;58572;48.110;19.838;2023-02-28T03:06:11;98794.38;;;0.44;56.66
70921;BME280;58572;48.110;19.838;2023-02-28T03:08:38;98773.97;;;0.78;55.74
70921;BME280;58572;48.110;19.838;2023-02-28T03:11:11;98795.47;;;0.98;55.15
70921;BME280;58572;48.110;19.838;2023-02-28T03:17:00;98803.75;;;0.61;55.39
70921;BME280;58572;48.110;19.838;2023-02-28T03:19:37;98806.25;;;0.70;56.19
70921;BME280;58572;48.110;19.838;2023-02-28T03:22:14;98793.78;;;0.83;52.65
70921;BME280;58572;48.110;19.838;2023-02-28T03:24:50;98730.91;;;1.20;52.10
70921;BME280;58572;48.110;19.838;2023-02-28T03:27:24;98720.91;;;0.88;55.15
70921;BME280;58572;48.110;19.838;2023-02-28T03:29:58;98797.13;;;0.57;53.77
70921;BME280;58572;48.110;19.838;2023-02-28T03:32:29;98789.91;;;1.47;54.65
70921;BME280;58572;48.110;19.838;2023-02-28T03:35:02;98799.59;;;1.48;54.37
70921;BME280;58572;48.110;19.838;2023-02-28T03:37:36;98800.38;;;0.87;52.81
70921;BME280;58572;48.110;19.838;2023-02-28T03:40:08;98782.81;;;0.37;54.30
70921;BME280;58572;48.110;19.838;2023-02-28T03:42:40;98812.53;;;-0.01;53.82
70921;BME280;58572;48.110;19.838;2023-02-28T03:45:11;98810.25;;;0.87;50.92
70921;BME280;58572;48.110;19.838;2023-02-28T03:47:42;98760.84;;;0.14;52.47
70921;BME280;58572;48.110;19.838;2023-02-28T03:50:16;98804.03;;;1.14;51.49
70921;BME280;58572;48.110;19.838;2023-02-28T03:52:49;98800.53;;;1.20;54.08
70921;BME280;58572;48.110;19.838;2023-02-28T03:55:18;98782.53;;;0.60;54.41
70921;BME280;58572;48.110;19.838;2023-02-28T03:57:54;98806.69;;;1.14;54.04
70921;BME280;58572;48.110;19.838;2023-02-28T04:00:27;98807.94;;;1.12;54.43
70921;BME280;58572;48.110;19.838;2023-02-28T04:02:57;98803.03;;;1.28;54.86
70921;BME280;58572;48.110;19.838;2023-02-28T04:05:24;98810.00;;;1.16;55.52
70921;BME280;58572;48.110;19.838;2023-02-28T04:07:53;98812.25;;;0.72;56.99
70921;BME280;58572;48.110;19.838;2023-02-28T04:10:20;98817.00;;;-0.08;58.12
70921;BME280;58572;48.110;19.838;2023-02-28T04:12:48;98821.72;;;0.12;55.42
70921;BME280;58572;48.110;19.838;2023-02-28T04:15:15;98811.25;;;1.20;54.77
70921;BME280;58572;48.110;19.838;2023-02-28T04:17:42;98811.84;;;-0.30;59.45
70921;BME280;58572;48.110;19.838;2023-02-28T04:20:10;98764.75;;;0.46;57.30
70921;BME280;58572;48.110;19.838;2023-02-28T04:22:37;98811.25;;;-0.05;59.15
70921;BME280;58572;48.110;19.838;2023-02-28T04:25:07;98805.34;;;0.56;57.93
70921;BME280;58572;48.110;19.838;2023-02-28T04:27:34;98757.53;;;0.40;57.51
70921;BME280;58572;48.110;19.838;2023-02-28T04:30:01;98764.97;;;-0.33;58.93
70921;BME280;58572;48.110;19.838;2023-02-28T04:32:28;98805.19;;;0.64;58.32
70921;BME280;58572;48.110;19.838;2023-02-28T04:34:55;98778.47;;;-0.41;55.08
70921;BME280;58572;48.110;19.838;2023-02-28T04:37:22;98815.53;;;0.39;57.92
70921;BME280;58572;48.110;19.838;2023-02-28T04:39:53;98809.81;;;-0.28;58.94
70921;BME280;58572;48.110;19.838;2023-02-28T04:42:21;98800.84;;;0.56;55.37
70921;BME280;58572;48.110;19.838;2023-02-28T04:44:48;98800.66;;;0.64;56.38
70921;BME280;58572;48.110;19.838;2023-02-28T04:47:15;98798.91;;;0.85;56.27
70921;BME280;58572;48.110;19.838;2023-02-28T04:49:42;98797.50;;;0.20;58.98
70921;BME280;58572;48.110;19.838;2023-02-28T04:52:09;98805.84;;;0.38;54.32
70921;BME280;58572;48.110;19.838;2023-02-28T04:54:38;98804.22;;;0.37;53.12
70921;BME280;58572;48.110;19.838;2023-02-28T04:57:05;98803.72;;;-0.22;56.65
70921;BME280;58572;48.110;19.838;2023-02-28T04:59:34;98802.13;;;-0.17;54.97
70921;BME280;58572;48.110;19.838;2023-02-28T05:02:01;98789.44;;;1.23;54.06
70921;BME280;58572;48.110;19.838;2023-02-28T05:04:32;98782.03;;;1.32;52.44
70921;BME280;58572;48.110;19.838;2023-02-28T05:06:59;98780.63;;;0.95;54.17
70921;BME280;58572;48.110;19.838;2023-02-28T05:09:26;98779.19;;;0.51;54.58
70921;BME280;58572;48.110;19.838;2023-02-28T05:11:55;98772.75;;;1.28;51.77
70921;BME280;58572;48.110;19.838;2023-02-28T05:14:22;98784.63;;;0.64;55.73
70921;BME280;58572;48.110;19.838;2023-02-28T05:16:50;98775.19;;;1.16;53.43
70921;BME280;58572;48.110;19.838;2023-02-28T05:19:17;98772.56;;;1.36;54.82
70921;BME280;58572;48.110;19.838;2023-02-28T05:21:51;98780.44;;;1.51;53.81
70921;BME280;58572;48.110;19.838;2023-02-28T05:24:18;98778.28;;;1.13;54.03
70921;BME280;58572;48.110;19.838;2023-02-28T05:26:51;98781.25;;;1.45;53.33
70921;BME280;58572;48.110;19.838;2023-02-28T05:29:18;98782.47;;;1.49;52.08
70921;BME280;58572;48.110;19.838;2023-02-28T05:31:45;98786.13;;;1.21;54.12
70921;BME280;58572;48.110;19.838;2023-02-28T05:34:14;98800.19;;;-0.02;52.16
70921;BME280;58572;48.110;19.838;2023-02-28T05:36:41;98799.69;;;1.13;54.04
70921;BME280;58572;48.110;19.838;2023-02-28T05:39:09;98760.06;;;0.20;53.74
70921;BME280;58572;48.110;19.838;2023-02-28T05:41:39;98791.75;;;1.40;54.56
70921;BME280;58572;48.110;19.838;2023-02-28T05:44:06;98778.13;;;0.87;51.46
70921;BME280;58572;48.110;19.838;2023-02-28T05:46:33;98762.59;;;0.28;52.36
70921;BME280;58572;48.110;19.838;2023-02-28T05:49:01;98805.69;;;0.81;53.58
70921;BME280;58572;48.110;19.838;2023-02-28T05:51:29;98803.94;;;1.62;52.13
70921;BME280;58572;48.110;19.838;2023-02-28T05:53:59;98758.97;;;0.83;51.34
70921;BME280;58572;48.110;19.838;2023-02-28T05:56:27;98824.38;;;1.09;52.81
70921;BME280;58572;48.110;19.838;2023-02-28T05:58:54;98813.97;;;0.86;51.08
70921;BME280;58572;48.110;19.838;2023-02-28T06:01:24;98816.84;;;0.84;53.40
70921;BME280;58572;48.110;19.838;2023-02-28T06:03:53;98825.22;;;0.40;50.83
70921;BME280;58572;48.110;19.838;2023-02-28T06:06:20;98825.66;;;-0.06;52.09
70921;BME280;58572;48.110;19.838;2023-02-28T06:08:49;98822.47;;;0.61;52.53
70921;BME280;58572;48.110;19.838;2023-02-28T06:11:16;98830.16;;;1.12;52.14
70921;BME280;58572;48.110;19.838;2023-02-28T06:13:45;98823.28;;;1.51;51.12
70921;BME280;58572;48.110;19.838;2023-02-28T06:16:12;98837.31;;;1.53;49.57
70921;BME280;58572;48.110;19.838;2023-02-28T06:18:39;98834.47;;;0.72;52.44
70921;BME280;58572;48.110;19.838;2023-02-28T06:21:07;98839.13;;;0.98;52.71
70921;BME280;58572;48.110;19.838;2023-02-28T06:23:34;98831.19;;;1.85;50.17
70921;BME280;58572;48.110;19.838;2023-02-28T06:26:03;98842.13;;;1.16;52.93
70921;BME280;58572;48.110;19.838;2023-02-28T06:28:32;98836.84;;;1.30;52.52
70921;BME280;58572;48.110;19.838;2023-02-28T06:31:04;98835.19;;;1.28;52.05
70921;BME280;58572;48.110;19.838;2023-02-28T06:33:32;98840.78;;;1.40;51.90
70921;BME280;58572;48.110;19.838;2023-02-28T06:35:59;98841.78;;;1.33;51.64
70921;BME280;58572;48.110;19.838;2023-02-28T06:38:26;98844.19;;;1.82;51.16
70921;BME280;58572;48.110;19.838;2023-02-28T06:40:54;98840.84;;;1.67;51.41
70921;BME280;58572;48.110;19.838;2023-02-28T06:43:24;98843.06;;;1.50;51.24
70921;BME280;58572;48.110;19.838;2023-02-28T06:45:54;98834.47;;;1.68;50.99
70921;BME280;58572;48.110;19.838;2023-02-28T06:48:21;98836.81;;;1.23;51.31
70921;BME280;58572;48.110;19.838;2023-02-28T06:50:49;98827.84;;;1.64;51.40
70921;BME280;58572;48.110;19.838;2023-02-28T06:53:16;98835.00;;;1.37;50.17
70921;BME280;58572;48.110;19.838;2023-02-28T06:55:45;98831.19;;;1.11;49.30
70921;BME280;58572;48.110;19.838;2023-02-28T06:58:12;98837.69;;;1.43;50.42
70921;BME280;58572;48.110;19.838;2023-02-28T07:00:49;98754.22;;;1.40;49.88
70921;BME280;58572;48.110;19.838;2023-02-28T07:03:17;98833.75;;;1.33;51.32
70921;BME280;58572;48.110;19.838;2023-02-28T07:05:44;98831.13;;;1.46;51.37
70921;BME280;58572;48.110;19.838;2023-02-28T07:08:12;98830.75;;;1.62;50.36
70921;BME280;58572;48.110;19.838;2023-02-28T07:10:39;98833.66;;;1.80;48.57
70921;BME280;58572;48.110;19.838;2023-02-28T07:13:08;98836.09;;;1.62;48.82
70921;BME280;58572;48.110;19.838;2023-02-28T07:15:36;98799.78;;;0.51;52.45
70921;BME280;58572;48.110;19.838;2023-02-28T07:18:04;98825.50;;;1.27;49.94
70921;BME280;58572;48.110;19.838;2023-02-28T07:20:31;98839.06;;;2.07;50.03
70921;BME280;58572;48.110;19.838;2023-02-28T07:22:58;98834.66;;;1.59;50.64
70921;BME280;58572;48.110;19.838;2023-02-28T07:25:27;98841.13;;;2.05;49.89
70921;BME280;58572;48.110;19.838;2023-02-28T07:27:55;98838.69;;;2.16;47.75
70921;BME280;58572;48.110;19.838;2023-02-28T07:30:24;98850.97;;;1.71;50.50
70921;BME280;58572;48.110;19.838;2023-02-28T07:32:51;98813.66;;;1.76;50.98
70921;BME280;58572;48.110;19.838;2023-02-28T07:35:21;98857.78;;;1.74;50.60
70921;BME280;58572;48.110;19.838;2023-02-28T07:37:48;98864.88;;;2.14;48.56
70921;BME280;58572;48.110;19.838;2023-02-28T07:40:16;98849.38;;;2.63;46.57
70921;BME280;58572;48.110;19.838;2023-02-28T07:42:44;98853.94;;;2.55;46.53
70921;BME280;58572;48.110;19.838;2023-02-28T07:45:11;98796.38;;;2.18;48.87
70921;BME280;58572;48.110;19.838;2023-02-28T07:47:38;98846.94;;;2.28;49.66
70921;BME280;58572;48.110;19.838;2023-02-28T07:50:07;98855.53;;;2.83;49.11
70921;BME280;58572;48.110;19.838;2023-02-28T07:52:36;98858.69;;;2.53;49.14
70921;BME280;58572;48.110;19.838;2023-02-28T07:55:05;98866.91;;;2.78;49.52
70921;BME280;58572;48.110;19.838;2023-02-28T07:57:32;98865.91;;;2.33;49.67
70921;BME280;58572;48.110;19.838;2023-02-28T07:59:59;98852.25;;;2.02;50.06
70921;BME280;58572;48.110;19.838;2023-02-28T08:02:27;98865.91;;;2.20;50.42
70921;BME280;58572;48.110;19.838;2023-02-28T08:04:54;98867.28;;;1.89;50.53
70921;BME280;58572;48.110;19.838;2023-02-28T08:07:22;98863.84;;;2.09;50.75
70921;BME280;58572;48.110;19.838;2023-02-28T08:09:50;98867.53;;;2.80;49.65
70921;BME280;58572;48.110;19.838;2023-02-28T08:12:17;98840.13;;;2.19;49.85
70921;BME280;58572;48.110;19.838;2023-02-28T08:14:44;98867.16;;;2.37;50.46
70921;BME280;58572;48.110;19.838;2023-02-28T08:17:12;98864.47;;;2.31;49.26
70921;BME280;58572;48.110;19.838;2023-02-28T08:19:39;98871.88;;;1.35;51.46
70921;BME280;58572;48.110;19.838;2023-02-28T08:22:06;98862.19;;;2.61;50.51
70921;BME280;58572;48.110;19.838;2023-02-28T08:24:33;98860.47;;;2.93;49.66
70921;BME280;58572;48.110;19.838;2023-02-28T08:27:02;98812.44;;;3.29;49.20
70921;BME280;58572;48.110;19.838;2023-02-28T08:29:29;98862.19;;;2.61;48.58
70921;BME280;58572;48.110;19.838;2023-02-28T08:31:56;98862.91;;;3.20;49.59
70921;BME280;58572;48.110;19.838;2023-02-28T08:34:24;98856.44;;;3.79;48.38
70921;BME280;58572;48.110;19.838;2023-02-28T08:36:51;98867.00;;;3.30;49.55
70921;BME280;58572;48.110;19.838;2023-02-28T08:39:18;98860.03;;;3.15;50.02
70921;BME280;58572;48.110;19.838;2023-02-28T08:41:45;98861.56;;;3.43;49.01
70921;BME280;58572;48.110;19.838;2023-02-28T08:44:14;98846.59;;;3.15;49.57
70921;BME280;58572;48.110;19.838;2023-02-28T08:46:41;98861.94;;;3.53;48.69
70921;BME280;58572;48.110;19.838;2023-02-28T08:49:10;98864.88;;;4.21;46.12
70921;BME280;58572;48.110;19.838;2023-02-28T08:51:38;98867.13;;;2.77;48.41
70921;BME280;58572;48.110;19.838;2023-02-28T08:54:05;98865.25;;;3.55;47.08
70921;BME280;58572;48.110;19.838;2023-02-28T08:56:32;98861.09;;;4.54;46.71
70921;BME280;58572;48.110;19.838;2023-02-28T08:58:59;98858.91;;;4.87;46.61
70921;BME280;58572;48.110;19.838;2023-02-28T09:01:29;98860.81;;;4.62;46.80
70921;BME280;58572;48.110;19.838;2023-02-28T09:03:58;98852.78;;;3.67;45.42
70921;BME280;58572;48.110;19.838;2023-02-28T09:06:26;98875.88;;;3.37;49.45
70921;BME280;58572;48.110;19.838;2023-02-28T09:08:56;98824.31;;;3.53;48.66
70921;BME280;58572;48.110;19.838;2023-02-28T09:11:25;98871.41;;;3.04;46.71
70921;BME280;58572;48.110;19.838;2023-02-28T09:13:52;98858.25;;;3.85;48.68
70921;BME280;58572;48.110;19.838;2023-02-28T09:16:21;98753.69;;;3.39;46.70
70921;BME280;58572;48.110;19.838;2023-02-28T09:18:50;98877.84;;;2.77;48.79
70921;BME280;58572;48.110;19.838;2023-02-28T09:21:18;98865.22;;;3.62;49.55
70921;BME280;58572;48.110;19.838;2023-02-28T09:23:47;98867.13;;;4.49;47.40
70921;BME280;58572;48.110;19.838;2023-02-28T09:26:16;98862.84;;;3.78;47.11
70921;BME280;58572;48.110;19.838;2023-02-28T09:28:44;98865.44;;;3.92;48.42
70921;BME280;58572;48.110;19.838;2023-02-28T09:31:12;98866.56;;;4.09;48.08
70921;BME280;58572;48.110;19.838;2023-02-28T09:33:40;98836.91;;;4.22;48.75
70921;BME280;58572;48.110;19.838;2023-02-28T09:36:09;98826.19;;;4.40;48.07
70921;BME280;58572;48.110;19.838;2023-02-28T09:38:36;98865.75;;;4.65;47.01
70921;BME280;58572;48.110;19.838;2023-02-28T09:41:09;98868.28;;;5.03;47.18
70921;BME280;58572;48.110;19.838;2023-02-28T09:43:40;98863.84;;;5.08;47.25
70921;BME280;58572;48.110;19.838;2023-02-28T09:46:21;98865.16;;;5.24;46.26
70921;BME280;58572;48.110;19.838;2023-02-28T09:48:53;98869.66;;;4.69;47.28
70921;BME280;58572;48.110;19.838;2023-02-28T09:51:40;98872.25;;;5.55;45.74
70921;BME280;58572;48.110;19.838;2023-02-28T09:54:14;98886.44;;;3.25;48.49
70921;BME280;58572;48.110;19.838;2023-02-28T09:56:45;98877.63;;;4.32;49.01
70921;BME280;58572;48.110;19.838;2023-02-28T09:59:29;98871.81;;;5.40;45.08
70921;BME280;58572;48.110;19.838;2023-02-28T10:02:04;98883.16;;;4.37;48.43
70921;BME280;58572;48.110;19.838;2023-02-28T10:04:43;98852.34;;;3.70;49.10
70921;BME280;58572;48.110;19.838;2023-02-28T10:07:35;98879.22;;;4.65;47.38
70921;BME280;58572;48.110;19.838;2023-02-28T10:10:07;98875.28;;;5.77;47.60
70921;BME280;58572;48.110;19.838;2023-02-28T10:12:44;98873.25;;;5.42;46.60
70921;BME280;58572;48.110;19.838;2023-02-28T10:15:14;98865.97;;;5.61;46.68
70921;BME280;58572;48.110;19.838;2023-02-28T10:17:44;98860.53;;;6.09;46.06
70921;BME280;58572;48.110;19.838;2023-02-28T10:20:14;98867.25;;;4.61;48.75
70921;BME280;58572;48.110;19.838;2023-02-28T10:22:52;98854.56;;;5.04;47.29
70921;BME280;58572;48.110;19.838;2023-02-28T10:25:23;98860.28;;;5.51;47.19
70921;BME280;58572;48.110;19.838;2023-02-28T10:27:53;98848.59;;;6.17;47.13
70921;BME280;58572;48.110;19.838;2023-02-28T10:30:21;98852.78;;;5.83;44.68
70921;BME280;58572;48.110;19.838;2023-02-28T10:32:51;98851.81;;;6.26;45.33
70921;BME280;58572;48.110;19.838;2023-02-28T10:35:20;98850.31;;;6.00;46.44
70921;BME280;58572;48.110;19.838;2023-02-28T10:37:50;98851.09;;;5.70;46.96
70921;BME280;58572;48.110;19.838;2023-02-28T10:40:31;98843.97;;;6.59;45.39
70921;BME280;58572;48.110;19.838;2023-02-28T10:43:00;98841.63;;;6.39;45.93
70921;BME280;58572;48.110;19.838;2023-02-28T10:45:29;98775.38;;;5.05;47.99
70921;BME280;58572;48.110;19.838;2023-02-28T10:47:59;98841.00;;;5.66;47.85
70921;BME280;58572;48.110;19.838;2023-02-28T10:50:35;98821.19;;;6.44;46.60
70921;BME280;58572;48.110;19.838;2023-02-28T10:53:28;98831.28;;;6.36;47.33
70921;BME280;58572;48.110;19.838;2023-02-28T10:55:59;98825.34;;;7.73;43.68
70921;BME280;58572;48.110;19.838;2023-02-28T10:58:30;98755.53;;;5.00;44.82
70921;BME280;58572;48.110;19.838;2023-02-28T11:00:59;98808.44;;;6.09;46.76
70921;BME280;58572;48.110;19.838;2023-02-28T11:03:31;98824.22;;;6.35;46.93
70921;BME280;58572;48.110;19.838;2023-02-28T11:06:03;98822.00;;;6.32;45.85
70921;BME280;58572;48.110;19.838;2023-02-28T11:08:33;98825.63;;;6.26;44.95
70921;BME280;58572;48.110;19.838;2023-02-28T11:11:04;98827.06;;;6.40;47.36
70921;BME280;58572;48.110;19.838;2023-02-28T11:13:34;98813.53;;;8.24;44.38
70921;BME280;58572;48.110;19.838;2023-02-28T11:16:06;98813.38;;;6.12;45.89
70921;BME280;58572;48.110;19.838;2023-02-28T11:18:39;98820.34;;;5.90;48.29
70921;BME280;58572;48.110;19.838;2023-02-28T11:21:07;98811.16;;;7.14;46.36
70921;BME280;58572;48.110;19.838;2023-02-28T11:23:40;98828.25;;;4.63;50.12
70921;BME280;58572;48.110;19.838;2023-02-28T11:26:08;98776.19;;;7.36;45.21
70921;BME280;58572;48.110;19.838;2023-02-28T11:28:39;98802.00;;;6.22;48.79
70921;BME280;58572;48.110;19.838;2023-02-28T11:31:16;98789.84;;;8.65;45.33
70921;BME280;58572;48.110;19.838;2023-02-28T11:33:47;98803.31;;;6.89;44.73
70921;BME280;58572;48.110;19.838;2023-02-28T11:36:19;98797.88;;;6.19;45.25
70921;BME280;58572;48.110;19.838;2023-02-28T11:38:48;98794.28;;;7.92;46.19
70921;BME280;58572;48.110;19.838;2023-02-28T11:41:29;98787.38;;;8.63;44.46
70921;BME280;58572;48.110;19.838;2023-02-28T11:44:23;98760.41;;;7.90;44.28
70921;BME280;58572;48.110;19.838;2023-02-28T11:46:55;98791.56;;;6.95;47.56
70921;BME280;58572;48.110;19.838;2023-02-28T11:49:31;98784.19;;;6.79;45.79
70921;BME280;58572;48.110;19.838;2023-02-28T11:52:04;98792.06;;;6.69;46.85
70921;BME280;58572;48.110;19.838;2023-02-28T11:54:52;98793.88;;;6.10;48.99
70921;BME280;58572;48.110;19.838;2023-02-28T11:57:36;98787.19;;;6.13;45.31
70921;BME280;58572;48.110;19.838;2023-02-28T12:00:24;98777.16;;;7.30;46.32
70921;BME280;58572;48.110;19.838;2023-02-28T12:03:01;98782.13;;;7.10;43.30
70921;BME280;58572;48.110;19.838;2023-02-28T12:05:36;98791.19;;;6.10;46.58
70921;BME280;58572;48.110;19.838;2023-02-28T12:08:20;98801.56;;;5.17;47.41
70921;BME280;58572;48.110;19.838;2023-02-28T12:11:03;98786.09;;;7.87;46.01
70921;BME280;58572;48.110;19.838;2023-02-28T12:13:42;98729.84;;;8.78;40.43
70921;BME280;58572;48.110;19.838;2023-02-28T12:19:16;98775.22;;;8.32;45.37
70921;BME280;58572;48.110;19.838;2023-02-28T12:22:09;98775.03;;;8.73;43.34
70921;BME280;58572;48.110;19.838;2023-02-28T12:24:47;98786.00;;;5.97;45.59
70921;BME280;58572;48.110;19.838;2023-02-28T12:27:22;98764.66;;;6.89;45.90
70921;BME280;58572;48.110;19.838;2023-02-28T12:29:56;98766.22;;;6.73;44.09
70921;BME280;58572;48.110;19.838;2023-02-28T12:32:29;98758.88;;;8.11;45.45
70921;BME280;58572;48.110;19.838;2023-02-28T12:35:02;98682.69;;;8.79;43.29
70921;BME280;58572;48.110;19.838;2023-02-28T12:37:36;98734.66;;;11.07;39.10
70921;BME280;58572;48.110;19.838;2023-02-28T12:40:09;98744.34;;;9.81;41.10
70921;BME280;58572;48.110;19.838;2023-02-28T12:42:42;98729.59;;;10.73;40.32
70921;BME280;58572;48.110;19.838;2023-02-28T12:45:15;98724.03;;;11.78;40.07
70921;BME280;58572;48.110;19.838;2023-02-28T12:47:48;98741.06;;;9.52;42.17
70921;BME280;58572;48.110;19.838;2023-02-28T12:50:17;98688.72;;;9.57;41.94
70921;BME280;58572;48.110;19.838;2023-02-28T12:52:47;98728.38;;;10.49;40.37
70921;BME280;58572;48.110;19.838;2023-02-28T12:55:23;98722.31;;;11.46;40.89
70921;BME280;58572;48.110;19.838;2023-02-28T12:58:00;98708.00;;;9.34;42.66
70921;BME280;58572;48.110;19.838;2023-02-28T13:00:34;98734.00;;;10.10;42.15
70921;BME280;58572;48.110;19.838;2023-02-28T13:03:36;98743.16;;;9.02;42.05
70921;BME280;58572;48.110;19.838;2023-02-28T13:06:20;98727.66;;;9.68;42.99
70921;BME280;58572;48.110;19.838;2023-02-28T13:09:05;98735.78;;;9.19;43.47
70921;BME280;58572;48.110;19.838;2023-02-28T13:11:40;98726.06;;;9.72;42.20
70921;BME280;58572;48.110;19.838;2023-02-28T13:14:20;98716.28;;;10.03;41.01
70921;BME280;58572;48.110;19.838;2023-02-28T13:17:09;98710.34;;;8.59;43.73
70921;BME280;58572;48.110;19.838;2023-02-28T13:19:39;98732.44;;;8.01;41.71
70921;BME280;58572;48.110;19.838;2023-02-28T13:22:17;98718.94;;;8.35;44.58
70921;BME280;58572;48.110;19.838;2023-02-28T13:24:47;98722.50;;;8.23;44.22
70921;BME280;58572;48.110;19.838;2023-02-28T13:27:23;98726.50;;;7.71;45.00
70921;BME280;58572;48.110;19.838;2023-02-28T13:29:52;98727.84;;;8.01;41.84